Decoded Metar for OIZH (ZAHEDAN in IRAN) (IATA:ZAH) | Meteo·Mobile Aviation Weather
aviador You're here:

OIZH Decoded Metar

ZAHEDAN in IRAN
Report Time2018-09-22 09:30:00
UTC Time2018-09-22 09:50:04
Flight Rules vfr VFR
Wind020° at 08 kt
W.Decomp.*RWY 35: 7.0 kt HW 3.9 kt RCW
W.Rank020° ranks 2
Current wind is below 020° avg. (8.7)
Visibility9999 m
Phenomena:N/A
Clouds:N/A
Expected CloudBase > 10,800 ft AGL from Temp-Dew spread
CeilingNone
Temp30°C (ISA +24)
Dew Point03°C (18% RH)
Heat Index28.2°C
AAT25.6°C
QNH1018 hPa
Density Alt7,142 ft
Elevation4,495 ft
Report Wrong Elevation
Raw Report
METAR OIZH 220930Z 02008KT CAVOK 30/03 Q1018 A3009 NOSIG=

Extra information for OIZH:More info

Metar Taf Metar & Taf Last 4 Metars F.Rules Stats Wind Profile Meteogram Temp Stats Airport Information Weather charts Add Link Nearby VenuesMetar ALERT Operation Metar Decoded Social comments